Startpagina
METAR-TAF:

METAR-TAF

Vliegvelden :

Luchthaven Talagi

Archangelsk, Rusland

breedte: 64-30N, lengte: 040-44E, hoogte: 13 m

Actueel weer

Dit bericht is 32 minuten geleden gemaakt, om 18:00 UTC
Wind 6 kt uit het oosten
Temperatuur 21°C
Vochtigheid 60%
Druk 1021 hPa
Zicht 10 km of meer
geen wolken onder 1500 m en geen cumulonimbus

METAR: ULAA 181800Z 08003MPS CAVOK 21/13 Q1021 R08/CLRD70 NOSIG RMK QFE764/1019

Tijdstip: 21:32 (18:32 UTC)

Verwachting

Dit bericht is 1 uur en het 41 minuten geleden gemaakt, om 16:51 UTC
Verwachting geldig van 18 om 18 UTC tot 19 om 18 UTC
Wind 10 kt uit het oosten
Zicht 10 km of meer
Verspreide wolken op 3000 ft
Tijdelijke
van 18 om 18 UTC tot 19 om 15 UTC
Wind 8 kt uit het oosten met uitschieters tot 19 kt

TAF: ULAA 181651Z 1818/1918 08005MPS 9999 SCT030 TEMPO 1818/1915 10004G10MPS

Waarnemingen en weersverwachtingen van meer dan 4000 vliegvelden (METAR en TAF).

De beschikbare stations zijn de gele en rode punten op de kaart.

Ga met uw muis naar het station om de naam te zien.

Klik dan om waarnemingen en weersverwachtingen te zien.

kaart wijzigen: klik op de groene knoppen met een zwart kruis om in te zoomen, op de groene knop met een streepje om uit te zoomen of op de groene pijlen voor aangrenzende kaarten.


METAR-TAF: